Weather at Tooradin Airport

Public forecast

Using degrees Celsius for public forecast. Weather courtesy of forecast.io.

Closest aviation weather report (METAR) to Tooradin Airport

Report is more than 6 hours old.

Closest report is Melbourne Essendon Airport, 38.3 nm (70.9 km) NW. Retrieved 2022/09/17 06:12 UTC (9 days ago):

YMEN 170612Z AUTO 29009KT 9999 -SHRA SCT027 BKN042 BKN078 11/09 Q0998 RESHRA

Closest aviation forecast (TAF) to Tooradin Airport

Forecast is more than 12 hours old.

Closest forecast is Melbourne International Airport, 42.6 nm (78.9 km) NW. Retrieved 2022/09/17 18:00 UTC (8 days ago):

TAF YMML 171712Z 1718/1900 33012KT 9999 BKN030 FM180100 34015G25KT 9999 -SHRA FEW020 BKN030 FM180600 33010KT 9999 -SHRA BKN030 FM181200 28013KT 9999 -SHRA SCT020 BKN030 INTER 1803/1809 6000 SHRA BKN020